Springfield, Illinois
Current Conditions -  °F | °C
As of 1:52 PM on Sunday 25 Jan 2015 (Local Time) from KSPI Reporting Station
Overcast Overcast  
Wind Chill: 27°   Ceiling: 700
Heat Index: 37°   Visibility: 10mi
Dew Point: 33°   Wind: 18mph
Humidity: 86%   Direction: 20°NNE
Pressure: 29.67"   Gusts: NA
Location:  39.8°N, 89.64°W
Report Text: KSPI 251952Z 02016KT 10SM OVC007 03/01 A2967 RMK AO2 SLP050 T00280006
Loading
Personal Weather Stations






























Interactive Weather Map New forecast layout! Learn more

10-Day Weather Forecast

Advertisements
Track Severe Weather on mobile